Richard Parker — HBY4696 — position and weather

sailwx.info

Track history (hours):
 
Tides and Currents Weather Stations Pressure Air Temp Water Temp Dewpoint Dewpoint Depression Visibility Wind Speed Wind Dir Waves Ship Positions

Richard Parker

Last reported at 2017-Aug-31 22:00 UTC. Time now 2017-Nov-24 09:46 UTC.
Position N 44°18' W 068°17'.
Warning: this ship's position is months out of date.

Length 12 m.

Type: Pleasure craft. MMSI: 269105610.

Date/timePositionNaut miles runAvg speedWind from/ knotsBaromVisibWave heightAir tempDewpointWater temp
2017-Aug-31 22:00N 44°18' W 068°17'0 0.0
2017-Aug-31 21:30N 44°18' W 068°17'0 0.0
2017-Aug-31 21:00N 44°18' W 068°17'0 0.0
2017-Aug-31 20:30N 44°18' W 068°17'0 0.0
2017-Aug-31 20:00N 44°18' W 068°17'0 0.0
2017-Aug-31 19:30N 44°18' W 068°17'0 0.0
2017-Aug-31 19:00N 44°18' W 068°17'0 0.0
2017-Aug-31 18:30N 44°18' W 068°17'0 0.2
2017-Aug-31 18:00N 44°18' W 068°17'2 4.8
2017-Aug-31 17:30N 44°15' W 068°17'2 4.9
2017-Aug-31 17:00N 44°13' W 068°19'3 5.0
2017-Aug-31 16:29N 44°13' W 068°22'5 5.2
2017-Aug-31 15:32N 44°12' W 068°29'0 6.1
2017-Aug-31 15:30N 44°12' W 068°29'  
2017-Aug-29 00:52N 42°47' W 070°08'5 5.9
2017-Aug-29 00:05N 42°44' W 070°12'1 6.4
2017-Aug-29 00:00N 42°44' W 070°13'3 6.0
2017-Aug-28 23:30N 42°43' W 070°16'3 6.5
2017-Aug-28 23:00N 42°41' W 070°20'3 6.6
2017-Aug-28 22:30N 42°40' W 070°24'3 6.4
2017-Aug-28 22:00N 42°38' W 070°28'3 6.1
2017-Aug-28 21:30N 42°37' W 070°32'3 5.8
2017-Aug-28 21:00N 42°36' W 070°36'3 5.7
2017-Aug-28 20:30N 42°35' W 070°39'2 3.7
2017-Aug-28 19:58N 42°37' W 070°39'0 0.0
2017-Aug-27 18:00N 42°37' W 070°39'1 2.4
2017-Aug-27 17:30N 42°36' W 070°40'3 6.1
2017-Aug-27 17:00N 42°33' W 070°43'2 4.5
2017-Aug-27 16:30N 42°31' W 070°44'3 6.0
2017-Aug-27 16:00N 42°29' W 070°46'3 5.8
2017-Aug-27 15:29N 42°27' W 070°49'2 3.9
2017-Aug-27 15:00N 42°25' W 070°51'3 5.8
2017-Aug-27 14:30N 42°23' W 070°54'3 6.6
2017-Aug-27 14:00N 42°20' W 070°57'3 6.1
2017-Aug-27 13:30N 42°20' W 071°01'2 4.0
2017-Aug-27 13:00N 42°22' W 071°03'0 0.0
2017-Aug-25 15:37N 42°22' W 071°03'0 1.3
2017-Aug-25 15:30N 42°22' W 071°03'0 0.8
2017-Aug-25 14:59N 42°22' W 071°02'0 0.0
2017-Aug-25 13:59N 42°22' W 071°02'0 0.0
2017-Aug-25 13:29N 42°22' W 071°02'0 0.0
2017-Aug-25 12:59N 42°22' W 071°02'0 0.0
2017-Aug-25 12:29N 42°22' W 071°02'0 0.0
2017-Aug-25 11:59N 42°22' W 071°02'0 0.0
2017-Aug-25 11:29N 42°22' W 071°02'0 0.0
2017-Aug-25 10:59N 42°22' W 071°02'0 0.0
2017-Aug-25 10:29N 42°22' W 071°02'0 0.0
2017-Aug-25 09:59N 42°22' W 071°02'0 0.0
2017-Aug-25 09:29N 42°22' W 071°02'0 0.0
2017-Aug-25 08:59N 42°22' W 071°02'0 0.0
2017-Aug-25 08:29N 42°22' W 071°02'0 0.0
2017-Aug-25 07:59N 42°22' W 071°02'0 0.0
2017-Aug-25 07:29N 42°22' W 071°02'0 0.0
2017-Aug-25 06:59N 42°22' W 071°02'0 0.0
2017-Aug-25 06:29N 42°22' W 071°02'0 0.0
2017-Aug-25 05:59N 42°22' W 071°02'0 0.0
2017-Aug-25 05:29N 42°22' W 071°02'0 0.0
2017-Aug-25 04:59N 42°22' W 071°02'0 0.0
2017-Aug-25 04:29N 42°22' W 071°02'0 0.0
2017-Aug-25 03:59N 42°22' W 071°02'0 0.0
2017-Aug-25 03:29N 42°22' W 071°02'0 0.0
2017-Aug-25 02:59N 42°22' W 071°02'0 0.0
2017-Aug-25 02:29N 42°22' W 071°02'0 0.0
2017-Aug-25 01:59N 42°22' W 071°02'0 0.0
2017-Aug-25 01:29N 42°22' W 071°02'0 0.0
2017-Aug-25 00:59N 42°22' W 071°02'0 0.0
2017-Aug-25 00:29N 42°22' W 071°02'0 0.0
2017-Aug-24 23:59N 42°22' W 071°02'0 0.0
2017-Aug-24 23:29N 42°22' W 071°02'0 0.0
2017-Aug-24 22:59N 42°22' W 071°02'0 0.0
2017-Aug-24 22:29N 42°22' W 071°02'0 0.0
2017-Aug-24 21:59N 42°22' W 071°02'0 0.0
2017-Aug-24 21:20N 42°22' W 071°02'0 0.1
2017-Aug-24 20:59N 42°22' W 071°02'0 0.0
2017-Aug-24 20:29N 42°22' W 071°02'0 0.0
2017-Aug-24 19:59N 42°22' W 071°02'0 0.0
2017-Aug-24 19:29N 42°22' W 071°02'0 0.0
2017-Aug-24 18:59N 42°22' W 071°02'0 0.0
2017-Aug-24 18:29N 42°22' W 071°02'0 0.0
2017-Aug-24 17:59N 42°22' W 071°02'0 0.0
2017-Aug-24 17:26N 42°22' W 071°02'0 0.0
2017-Aug-24 16:53N 42°22' W 071°02'0 0.0
2017-Aug-24 16:26N 42°22' W 071°02'0 0.0
2017-Aug-24 15:59N 42°22' W 071°02'0 0.0
2017-Aug-24 15:29N 42°22' W 071°02'0 0.0
2017-Aug-24 14:59N 42°22' W 071°02'0 0.0
2017-Aug-24 14:29N 42°22' W 071°02'0 0.0
2017-Aug-24 14:00N 42°22' W 071°02'0 0.0
2017-Aug-24 13:26N 42°22' W 071°02'0 0.0
2017-Aug-24 12:59N 42°22' W 071°02'0 0.0
2017-Aug-24 12:29N 42°22' W 071°02'0 0.0
2017-Aug-24 11:59N 42°22' W 071°02'0 0.0
2017-Aug-24 11:29N 42°22' W 071°02'0 0.0
2017-Aug-24 10:56N 42°22' W 071°02'0 0.0
2017-Aug-24 10:29N 42°22' W 071°02'0 0.0
2017-Aug-24 09:59N 42°22' W 071°02'0 0.0
2017-Aug-24 09:29N 42°22' W 071°02'0 0.0
2017-Aug-24 08:59N 42°22' W 071°02'0 0.0
2017-Aug-24 08:29N 42°22' W 071°02'0 0.0
2017-Aug-24 07:59N 42°22' W 071°02'0 0.0
2017-Aug-24 07:29N 42°22' W 071°02'0 0.0
2017-Aug-24 06:59N 42°22' W 071°02'0 0.0
2017-Aug-24 06:29N 42°22' W 071°02'0 0.0
2017-Aug-24 05:59N 42°22' W 071°02'0 0.0
2017-Aug-24 05:29N 42°22' W 071°02'0 0.0
2017-Aug-24 04:56N 42°22' W 071°02'0 0.0
2017-Aug-24 04:29N 42°22' W 071°02'0 0.0
2017-Aug-24 03:59N 42°22' W 071°02'0 0.0
2017-Aug-24 03:29N 42°22' W 071°02'0 0.0
2017-Aug-24 03:00N 42°22' W 071°02'0 0.0
2017-Aug-24 02:29N 42°22' W 071°02'0 0.0
2017-Aug-23 17:46N 42°22' W 071°02'0 0.0
2017-Aug-23 17:28N 42°22' W 071°02'0 0.0
2017-Aug-23 16:58N 42°22' W 071°02'0 0.0
2017-Aug-23 16:28N 42°22' W 071°02'0 0.0
2017-Aug-23 15:46N 42°22' W 071°02'0 0.2
2017-Aug-23 15:30N 42°22' W 071°02'0 0.0
2017-Aug-22 21:14N 42°22' W 071°03'0 1.2
2017-Aug-22 21:00N 42°22' W 071°03'2 4.6
2017-Aug-22 20:30N 42°20' W 071°00'3 5.9
2017-Aug-22 20:00N 42°20' W 070°56'1 1.0
2017-Aug-22 19:28N 42°19' W 070°56'0 0.0
2017-Aug-22 18:58N 42°19' W 070°56'0 0.0
2017-Aug-22 18:28N 42°19' W 070°56'0 0.1
2017-Aug-22 18:00N 42°19' W 070°56'1 2.4
2017-Aug-22 17:30N 42°19' W 070°54'3 6.2
2017-Aug-22 17:00N 42°20' W 070°58'2 3.7
2017-Aug-22 16:30N 42°21' W 071°01'  
Track history (hours):
 
Tides and Currents Weather Stations Pressure Air Temp Water Temp Dewpoint Dewpoint Depression Visibility Wind Speed Wind Dir Waves Ship Positions

Richard Parker

Last reported at 2017-Aug-31 22:00 UTC. Time now 2017-Nov-24 09:46 UTC.
Position N 44°18' W 068°17'.
Warning: this ship's position is months out of date.

Length 12 m.

Type: Pleasure craft. MMSI: 269105610.

Date/timePositionNaut miles runAvg speedWind from/ knotsBaromVisibWave heightAir tempDewpointWater temp
2017-Aug-31 22:00N 44°18' W 068°17'0 0.0
2017-Aug-31 21:30N 44°18' W 068°17'0 0.0
2017-Aug-31 21:00N 44°18' W 068°17'0 0.0
2017-Aug-31 20:30N 44°18' W 068°17'0 0.0
2017-Aug-31 20:00N 44°18' W 068°17'0 0.0
2017-Aug-31 19:30N 44°18' W 068°17'0 0.0
2017-Aug-31 19:00N 44°18' W 068°17'0 0.0
2017-Aug-31 18:30N 44°18' W 068°17'0 0.2
2017-Aug-31 18:00N 44°18' W 068°17'2 4.8
2017-Aug-31 17:30N 44°15' W 068°17'2 4.9
2017-Aug-31 17:00N 44°13' W 068°19'3 5.0
2017-Aug-31 16:29N 44°13' W 068°22'5 5.2
2017-Aug-31 15:32N 44°12' W 068°29'0 6.1
2017-Aug-31 15:30N 44°12' W 068°29'  
2017-Aug-29 00:52N 42°47' W 070°08'5 5.9
2017-Aug-29 00:05N 42°44' W 070°12'1 6.4
2017-Aug-29 00:00N 42°44' W 070°13'3 6.0
2017-Aug-28 23:30N 42°43' W 070°16'3 6.5
2017-Aug-28 23:00N 42°41' W 070°20'3 6.6
2017-Aug-28 22:30N 42°40' W 070°24'3 6.4
2017-Aug-28 22:00N 42°38' W 070°28'3 6.1
2017-Aug-28 21:30N 42°37' W 070°32'3 5.8
2017-Aug-28 21:00N 42°36' W 070°36'3 5.7
2017-Aug-28 20:30N 42°35' W 070°39'2 3.7
2017-Aug-28 19:58N 42°37' W 070°39'0 0.0
2017-Aug-27 18:00N 42°37' W 070°39'1 2.4
2017-Aug-27 17:30N 42°36' W 070°40'3 6.1
2017-Aug-27 17:00N 42°33' W 070°43'2 4.5
2017-Aug-27 16:30N 42°31' W 070°44'3 6.0
2017-Aug-27 16:00N 42°29' W 070°46'3 5.8
2017-Aug-27 15:29N 42°27' W 070°49'2 3.9
2017-Aug-27 15:00N 42°25' W 070°51'3 5.8
2017-Aug-27 14:30N 42°23' W 070°54'3 6.6
2017-Aug-27 14:00N 42°20' W 070°57'3 6.1
2017-Aug-27 13:30N 42°20' W 071°01'2 4.0
2017-Aug-27 13:00N 42°22' W 071°03'0 0.0
2017-Aug-25 15:37N 42°22' W 071°03'0 1.3
2017-Aug-25 15:30N 42°22' W 071°03'0 0.8
2017-Aug-25 14:59N 42°22' W 071°02'0 0.0
2017-Aug-25 13:59N 42°22' W 071°02'0 0.0
2017-Aug-25 13:29N 42°22' W 071°02'0 0.0
2017-Aug-25 12:59N 42°22' W 071°02'0 0.0
2017-Aug-25 12:29N 42°22' W 071°02'0 0.0
2017-Aug-25 11:59N 42°22' W 071°02'0 0.0
2017-Aug-25 11:29N 42°22' W 071°02'0 0.0
2017-Aug-25 10:59N 42°22' W 071°02'0 0.0
2017-Aug-25 10:29N 42°22' W 071°02'0 0.0
2017-Aug-25 09:59N 42°22' W 071°02'0 0.0
2017-Aug-25 09:29N 42°22' W 071°02'0 0.0
2017-Aug-25 08:59N 42°22' W 071°02'0 0.0
2017-Aug-25 08:29N 42°22' W 071°02'0 0.0
2017-Aug-25 07:59N 42°22' W 071°02'0 0.0
2017-Aug-25 07:29N 42°22' W 071°02'0 0.0
2017-Aug-25 06:59N 42°22' W 071°02'0 0.0
2017-Aug-25 06:29N 42°22' W 071°02'0 0.0
2017-Aug-25 05:59N 42°22' W 071°02'0 0.0
2017-Aug-25 05:29N 42°22' W 071°02'0 0.0
2017-Aug-25 04:59N 42°22' W 071°02'0 0.0
2017-Aug-25 04:29N 42°22' W 071°02'0 0.0
2017-Aug-25 03:59N 42°22' W 071°02'0 0.0
2017-Aug-25 03:29N 42°22' W 071°02'0 0.0
2017-Aug-25 02:59N 42°22' W 071°02'0 0.0
2017-Aug-25 02:29N 42°22' W 071°02'0 0.0
2017-Aug-25 01:59N 42°22' W 071°02'0 0.0
2017-Aug-25 01:29N 42°22' W 071°02'0 0.0
2017-Aug-25 00:59N 42°22' W 071°02'0 0.0
2017-Aug-25 00:29N 42°22' W 071°02'0 0.0
2017-Aug-24 23:59N 42°22' W 071°02'0 0.0
2017-Aug-24 23:29N 42°22' W 071°02'0 0.0
2017-Aug-24 22:59N 42°22' W 071°02'0 0.0
2017-Aug-24 22:29N 42°22' W 071°02'0 0.0
2017-Aug-24 21:59N 42°22' W 071°02'0 0.0
2017-Aug-24 21:20N 42°22' W 071°02'0 0.1
2017-Aug-24 20:59N 42°22' W 071°02'0 0.0
2017-Aug-24 20:29N 42°22' W 071°02'0 0.0
2017-Aug-24 19:59N 42°22' W 071°02'0 0.0
2017-Aug-24 19:29N 42°22' W 071°02'0 0.0
2017-Aug-24 18:59N 42°22' W 071°02'0 0.0
2017-Aug-24 18:29N 42°22' W 071°02'0 0.0
2017-Aug-24 17:59N 42°22' W 071°02'0 0.0
2017-Aug-24 17:26N 42°22' W 071°02'0 0.0
2017-Aug-24 16:53N 42°22' W 071°02'0 0.0
2017-Aug-24 16:26N 42°22' W 071°02'0 0.0
2017-Aug-24 15:59N 42°22' W 071°02'0 0.0
2017-Aug-24 15:29N 42°22' W 071°02'0 0.0
2017-Aug-24 14:59N 42°22' W 071°02'0 0.0
2017-Aug-24 14:29N 42°22' W 071°02'0 0.0
2017-Aug-24 14:00N 42°22' W 071°02'0 0.0
2017-Aug-24 13:26N 42°22' W 071°02'0 0.0
2017-Aug-24 12:59N 42°22' W 071°02'0 0.0
2017-Aug-24 12:29N 42°22' W 071°02'0 0.0
2017-Aug-24 11:59N 42°22' W 071°02'0 0.0
2017-Aug-24 11:29N 42°22' W 071°02'0 0.0
2017-Aug-24 10:56N 42°22' W 071°02'0 0.0
2017-Aug-24 10:29N 42°22' W 071°02'0 0.0
2017-Aug-24 09:59N 42°22' W 071°02'0 0.0
2017-Aug-24 09:29N 42°22' W 071°02'0 0.0
2017-Aug-24 08:59N 42°22' W 071°02'0 0.0
2017-Aug-24 08:29N 42°22' W 071°02'0 0.0
2017-Aug-24 07:59N 42°22' W 071°02'0 0.0
2017-Aug-24 07:29N 42°22' W 071°02'0 0.0
2017-Aug-24 06:59N 42°22' W 071°02'0 0.0
2017-Aug-24 06:29N 42°22' W 071°02'0 0.0
2017-Aug-24 05:59N 42°22' W 071°02'0 0.0
2017-Aug-24 05:29N 42°22' W 071°02'0 0.0
2017-Aug-24 04:56N 42°22' W 071°02'0 0.0
2017-Aug-24 04:29N 42°22' W 071°02'0 0.0
2017-Aug-24 03:59N 42°22' W 071°02'0 0.0
2017-Aug-24 03:29N 42°22' W 071°02'0 0.0
2017-Aug-24 03:00N 42°22' W 071°02'0 0.0
2017-Aug-24 02:29N 42°22' W 071°02'0 0.0
2017-Aug-23 17:46N 42°22' W 071°02'0 0.0
2017-Aug-23 17:28N 42°22' W 071°02'0 0.0
2017-Aug-23 16:58N 42°22' W 071°02'0 0.0
2017-Aug-23 16:28N 42°22' W 071°02'0 0.0
2017-Aug-23 15:46N 42°22' W 071°02'0 0.2
2017-Aug-23 15:30N 42°22' W 071°02'0 0.0
2017-Aug-22 21:14N 42°22' W 071°03'0 1.2
2017-Aug-22 21:00N 42°22' W 071°03'2 4.6
2017-Aug-22 20:30N 42°20' W 071°00'3 5.9
2017-Aug-22 20:00N 42°20' W 070°56'1 1.0
2017-Aug-22 19:28N 42°19' W 070°56'0 0.0
2017-Aug-22 18:58N 42°19' W 070°56'0 0.0
2017-Aug-22 18:28N 42°19' W 070°56'0 0.1
2017-Aug-22 18:00N 42°19' W 070°56'1 2.4
2017-Aug-22 17:30N 42°19' W 070°54'3 6.2
2017-Aug-22 17:00N 42°20' W 070°58'2 3.7
2017-Aug-22 16:30N 42°21' W 071°01'  

Dump ship's entire track history